首页
METAR-TAF:

METAR-TAF

机场 :

克莱蒙费朗, 法国

纬度: 45-47N, 经度: 003-10E, 海拔: 332米

当前天气观测

该预报发布于43分钟前的09:00 UTC
风速5节,风向
温度 13°C
湿度 82%
气压 1011 hPa
能见度10公里或以上
多云层高于3400英尺
多云层高于4400英尺
阴天层高于5600英尺

METAR: LFLC 150900Z AUTO 19005KT 9999 BKN034 BKN044 OVC056 13/10 Q1011 TEMPO 4000 SHRA BKN009 BKN035TCU

时间: 11:43 (09:43 UTC)

预报

该预报发布于1小时和43分钟前的08:00 UTC
预报有效从15日的 09点(UTC)到 16日的 09点(UTC)
风速5节,风向
能见度10公里或以上
多云层高于6000英尺
几率 40% :
短暂存在
从 15日的 09点(UTC)到 15日的 14点(UTC)
能見度: 4000
多云层高于900英尺
多云层高于3500英尺, 塔状积云.
阵雨
成为
从 15日的 14点(UTC)到 15日的 16点(UTC)
散云层高于5000英尺

TAF: LFLC 150800Z 1509/1609 18005KT 9999 BKN060 PROB40 TEMPO 1509/1514 4000 SHRA BKN009 BKN035TCU BECMG 1514/1516 SCT050

超过4000个机场的气象观测和天气预报(METAR&TAF报告)。

可查询的气象台以黄色和红色小点在地图上表示。

将鼠标移到小点上方,可查看气象台名称。

然后点击查看天气观测和预报。

如需切换地图:点击带黑十字的绿色按钮放大地图;点击带横线的绿色按钮缩小地图;或者点击绿色箭头查看邻近地区的地图。


METAR-TAF: